Airfield :
LOGIN :

Register | Disclaimer

   EN    FR    IT 

 










Legend :    VFR   Marginal VFR   IFR   Intensive IFR   Very Intensive IFR
Visi :
Ceiling :
>= 8 km
>= 3000ft
5 to 8 km
1000 to 3000 ft
1500m to 5 km
500 to 1000 ft
800 to 1500m
200 to 500 ft
< 800m
< 200 ft
Symbols :   Thunderstorms  Fog  Heavy snow  Heavy precipitations  Wind > 20 kt
SIGMETs :     Misc.  Thunderstorms  Icing  Turbulence  Mountain Waves  Volcanic Ashes






- Airport Elevation : 529 ft
- IATA code : CHR


LFLX - Chateauroux

CURRENT METAR :
  • 220030Z AUTO 21020KT 9000 -RA BKN010/// OVC015/// ///TCU 11/10 Q1009 TEMPO 4000 -RA BECMG 22020G30KT BKN016

EXPIRED METARs :
  • 220000Z AUTO 21020KT 9999 -DZ OVC009 11/10 Q1009 TEMPO 4000 -RA BECMG 22020G30KT BKN013
  • 212330Z AUTO 21019KT 9999 -RA OVC007 11/10 Q1010 TEMPO 22020G30KT 4500 -RADZ BKN012
  • 212300Z AUTO 21019KT 5000 -RA BR OVC009 11/10 Q1010 TEMPO 22020G30KT BKN012
  • 212230Z AUTO 21018KT 8000 -RA OVC011 11/09 Q1011 TEMPO 22020G30KT 4500 -RADZ
  • 212200Z AUTO 21018KT 8000 -RA OVC014 10/09 Q1012 TEMPO 22020G30KT 4500 -RADZ
  • 212130Z AUTO 21018KT 9999 -DZ BKN017 OVC022 10/09 Q1012 TEMPO 22020G30KT 4500 -RADZ BKN012
  • 212100Z AUTO 21016KT 9999 -RA OVC021 10/08 Q1013 TEMPO 22020G30KT 4500 -RADZ BKN012
  • 212030Z AUTO 21018KT 9999 -DZ OVC024 10/08 Q1013 TEMPO 22020G30KT 4500 -RADZ BKN012
  • 212000Z AUTO 21019KT 9999 -RA BKN026 BKN035 BKN052 10/07 Q1013 TEMPO 22020G30KT 4500 -RADZ BKN012

TAF TAF LFLX
Valid from the 22 at 00:00 until the 23 at 06:00 UTC


212300Z 2200/2306 22020G30KT 7000 BKN013
PROB40
TEMPO 2200/2203 4000 -RA
BECMG 2202/2204 BKN016
TEMPO 2214/2219 24025G40KT 3000 SHRA BKN030TCU
PROB40
TEMPO 2214/2218 24030G50KT SCT035CB
PROB40
TEMPO 2222/2306 3000 SHRA SCT025CB



MET'MAP, your aeronautical weather chart ! - Copyright ORBIFLY December 2007 - Disclaimer

ORBIFLY MET'MAP TEAM :

Programming & Development : Alexandra Zaïnal
Original concept : Baudouin d'Aumeries
Technical & hardware support : Manuel Goepfert
Assistance : Marc-Olivier Méhu




SOURCES & CREDITS :

   NOAA